Terminal Aerodrome Forecast
Issued by NWS

Current Version | Previous Version | Graphics & Text | Print | Product List | Glossary On
Versions: 1 2 3 4 5 6 7 8 9 10 11 12 13 14 15 16 17 18
200
FTUS41 KPBZ 181120
TAFHLG
TAF
KHLG 181120Z 1812/1912 20004KT P6SM SKC
     FM182300 20005KT P6SM VCSH OVC050
     FM190200 20008KT P6SM -SHRA BKN020=

USA.gov is the U.S. government's official web portal to all federal, state and local government web resources and services.